createdAt,value
2022-10-24T00:01:17.865Z,2.50
2022-10-24T00:06:52.876Z,2.90
2022-10-24T00:09:39.868Z,3.23
2022-10-24T00:12:26.778Z,3.63
2022-10-24T00:15:14.273Z,4.20
2022-10-24T00:18:01.543Z,4.43
2022-10-24T00:20:48.445Z,4.23
2022-10-24T00:23:36.230Z,4.60
2022-10-24T00:26:23.201Z,4.30
2022-10-24T00:29:11.012Z,4.00
2022-10-24T00:31:57.930Z,3.97
2022-10-24T00:34:44.855Z,3.77
2022-10-24T00:37:31.808Z,3.60
2022-10-24T00:40:20.483Z,3.80
2022-10-24T00:43:20.116Z,3.80
2022-10-24T00:46:07.402Z,3.40
2022-10-24T00:48:55.096Z,4.20
2022-10-24T00:51:42.750Z,3.87
2022-10-24T00:54:30.196Z,4.03
2022-10-24T00:57:50.113Z,3.70
2022-10-24T01:00:37.162Z,4.60
2022-10-24T01:03:24.589Z,4.50
2022-10-24T01:06:44.757Z,4.83
2022-10-24T01:10:11.549Z,4.60
2022-10-24T01:13:39.057Z,4.93
2022-10-24T01:16:34.739Z,4.53
2022-10-24T01:19:47.996Z,4.23
2022-10-24T01:23:16.248Z,3.80
2022-10-24T01:26:50.891Z,4.40
2022-10-24T01:30:01.046Z,4.80
2022-10-24T01:32:58.714Z,3.97
2022-10-24T01:35:54.876Z,3.80
2022-10-24T01:38:50.540Z,4.13
2022-10-24T01:41:40.156Z,4.10
2022-10-24T01:44:32.888Z,4.07
2022-10-24T01:47:27.682Z,4.30
2022-10-24T01:50:18.054Z,4.43
2022-10-24T01:53:07.379Z,3.63
2022-10-24T01:55:54.994Z,3.93
2022-10-24T01:58:41.960Z,3.43
2022-10-24T02:01:29.468Z,3.80
2022-10-24T02:04:16.610Z,3.90
2022-10-24T02:07:08.083Z,4.10
2022-10-24T02:10:07.725Z,4.13
2022-10-24T02:13:11.021Z,4.00
2022-10-24T02:16:00.024Z,3.90
2022-10-24T02:18:49.126Z,3.67
2022-10-24T02:22:17.334Z,3.77
2022-10-24T02:25:11.129Z,3.47
2022-10-24T02:28:15.552Z,3.53
2022-10-24T02:31:21.237Z,3.73
2022-10-24T02:34:10.031Z,3.60
2022-10-24T02:36:59.314Z,3.60
2022-10-24T02:39:48.708Z,3.50
2022-10-24T02:42:36.735Z,3.50
2022-10-24T02:45:24.743Z,3.47
2022-10-24T02:48:14.325Z,4.33
2022-10-24T02:51:02.120Z,4.03
2022-10-24T02:53:50.333Z,3.60
2022-10-24T02:56:43.290Z,3.40
2022-10-24T02:59:30.439Z,3.40
2022-10-24T03:02:17.400Z,4.00
2022-10-24T03:05:04.521Z,4.10
2022-10-24T03:07:51.515Z,3.10
2022-10-24T03:10:38.522Z,3.80
2022-10-24T03:13:25.468Z,3.30
2022-10-24T03:16:14.115Z,3.33
2022-10-24T03:19:01.440Z,3.67
2022-10-24T03:21:48.606Z,3.23
2022-10-24T03:24:44.250Z,3.13
2022-10-24T03:27:31.684Z,3.43
2022-10-24T03:30:18.715Z,3.50
2022-10-24T03:33:05.787Z,3.50
2022-10-24T03:35:53.529Z,3.90
2022-10-24T03:38:40.525Z,3.53
2022-10-24T03:41:27.482Z,3.17
2022-10-24T03:44:14.394Z,3.67
2022-10-24T03:47:01.454Z,3.47
2022-10-24T03:49:48.367Z,3.50
2022-10-24T03:52:35.333Z,3.50
2022-10-24T03:55:22.824Z,3.60
2022-10-24T03:58:09.801Z,3.90
2022-10-24T04:00:58.985Z,3.90
2022-10-24T04:03:46.703Z,3.23
2022-10-24T04:06:36.392Z,3.93
2022-10-24T04:09:24.055Z,3.73
2022-10-24T04:12:11.179Z,4.13
2022-10-24T04:15:02.392Z,3.83
2022-10-24T04:17:51.800Z,3.90
2022-10-24T04:20:38.712Z,3.40
2022-10-24T04:23:26.725Z,3.93
2022-10-24T04:26:15.372Z,3.93
2022-10-24T04:29:02.309Z,3.90
2022-10-24T04:31:49.323Z,4.20
2022-10-24T04:34:36.350Z,4.23
2022-10-24T04:37:23.302Z,4.33
2022-10-24T04:40:10.649Z,4.00
2022-10-24T04:42:57.681Z,4.23
2022-10-24T04:45:45.039Z,4.70
2022-10-24T04:48:32.298Z,4.87
2022-10-24T04:51:22.284Z,4.33
2022-10-24T04:54:09.702Z,4.50
2022-10-24T04:56:56.630Z,3.93
2022-10-24T04:59:43.616Z,4.10
2022-10-24T05:02:30.634Z,3.77
2022-10-24T05:05:17.831Z,4.70
2022-10-24T05:08:04.929Z,4.07
2022-10-24T05:10:51.879Z,3.93
2022-10-24T05:13:39.576Z,4.23
2022-10-24T05:16:26.476Z,4.63
2022-10-24T05:19:13.406Z,4.00
2022-10-24T05:22:00.326Z,4.60
2022-10-24T05:24:47.236Z,4.40
2022-10-24T05:27:34.283Z,4.37
2022-10-24T05:30:21.278Z,3.93
2022-10-24T05:33:08.172Z,4.20
2022-10-24T05:35:55.669Z,3.90
2022-10-24T05:38:42.616Z,4.43
2022-10-24T05:41:29.678Z,3.93
2022-10-24T05:44:16.760Z,4.47
2022-10-24T05:47:03.685Z,4.50
2022-10-24T05:49:50.597Z,4.87
2022-10-24T05:52:37.729Z,4.03
2022-10-24T05:55:24.684Z,4.63
2022-10-24T05:58:11.623Z,4.10
2022-10-24T06:00:58.663Z,4.50
2022-10-24T06:03:46.522Z,4.33
2022-10-24T06:06:34.589Z,3.90
2022-10-24T06:09:21.579Z,4.03
2022-10-24T06:12:10.017Z,4.67
2022-10-24T06:14:58.045Z,3.80
2022-10-24T06:17:45.071Z,4.40
2022-10-24T06:20:31.994Z,4.70
2022-10-24T06:23:18.941Z,4.40
2022-10-24T06:26:10.970Z,3.90
2022-10-24T06:28:57.866Z,4.20
2022-10-24T06:31:44.825Z,4.87
2022-10-24T06:34:31.865Z,4.23
2022-10-24T06:37:18.794Z,5.47
2022-10-24T06:40:06.389Z,4.90
2022-10-24T06:42:53.320Z,4.67
2022-10-24T06:45:40.429Z,4.60
2022-10-24T06:48:27.339Z,3.70
2022-10-24T06:51:17.326Z,4.23
2022-10-24T06:54:04.318Z,4.10
2022-10-24T06:56:51.240Z,4.10
2022-10-24T06:59:38.183Z,3.80
2022-10-24T07:02:25.314Z,3.80
2022-10-24T07:05:14.315Z,3.57
2022-10-24T07:08:01.488Z,4.67
2022-10-24T07:10:48.403Z,3.67
2022-10-24T07:13:35.760Z,3.77
2022-10-24T07:16:23.286Z,3.87
2022-10-24T07:19:11.007Z,3.80
2022-10-24T07:21:58.756Z,3.60
2022-10-24T07:24:46.319Z,4.07
2022-10-24T07:27:34.043Z,3.60
2022-10-24T07:30:21.065Z,3.90
2022-10-24T07:33:07.996Z,4.10
2022-10-24T07:35:55.113Z,3.67
2022-10-24T07:38:42.008Z,3.67
2022-10-24T07:41:31.017Z,3.90
2022-10-24T07:44:17.919Z,4.07
2022-10-24T07:47:06.774Z,4.50
2022-10-24T07:49:53.692Z,3.83
2022-10-24T07:52:40.583Z,4.50
2022-10-24T07:55:27.576Z,3.43
2022-10-24T07:58:14.584Z,3.83
2022-10-24T08:01:11.106Z,4.40
2022-10-24T08:03:58.116Z,3.73
2022-10-24T08:06:45.167Z,3.50
2022-10-24T08:09:32.118Z,3.33
2022-10-24T08:12:19.076Z,3.27
2022-10-24T08:15:06.648Z,4.03
2022-10-24T08:17:54.664Z,3.60
2022-10-24T08:20:42.043Z,3.70
2022-10-24T08:23:29.573Z,4.07
2022-10-24T08:26:18.953Z,3.30
2022-10-24T08:29:10.752Z,3.10
2022-10-24T08:31:57.737Z,3.17
2022-10-24T08:34:44.918Z,3.00
2022-10-24T08:37:32.033Z,3.30
2022-10-24T08:40:20.527Z,2.97
2022-10-24T08:43:09.578Z,2.90
2022-10-24T08:46:20.298Z,3.27
2022-10-24T08:49:47.966Z,3.17
2022-10-24T08:52:48.258Z,2.80
2022-10-24T08:55:50.340Z,2.97
2022-10-24T08:58:44.950Z,2.92
2022-10-24T09:01:38.451Z,3.15
2022-10-24T09:04:28.794Z,2.88
2022-10-24T09:07:19.528Z,2.83
2022-10-24T09:10:16.825Z,2.67
2022-10-24T09:13:13.071Z,2.75
2022-10-24T09:16:00.043Z,3.22
2022-10-24T09:18:49.390Z,2.85
2022-10-24T09:21:37.161Z,2.95
2022-10-24T09:24:57.709Z,2.75
2022-10-24T09:27:45.160Z,2.75
2022-10-24T09:30:33.480Z,2.83
2022-10-24T09:33:31.312Z,2.72
2022-10-24T09:36:20.500Z,2.55
2022-10-24T09:39:24.564Z,3.35
2022-10-24T09:42:22.014Z,2.58
2022-10-24T09:45:31.976Z,2.80
2022-10-24T09:48:41.804Z,2.67
2022-10-24T09:51:41.468Z,2.53
2022-10-24T09:54:30.772Z,2.83
2022-10-24T09:57:18.072Z,2.75
2022-10-24T10:00:08.127Z,2.53
2022-10-24T10:03:05.038Z,2.53
2022-10-24T10:05:56.855Z,2.60
2022-10-24T10:08:50.074Z,2.65
2022-10-24T10:11:40.591Z,2.60
2022-10-24T10:14:29.273Z,2.50
2022-10-24T10:17:26.822Z,2.85
2022-10-24T10:20:38.853Z,2.95
2022-10-24T10:23:28.430Z,2.28
2022-10-24T10:26:27.434Z,2.47
2022-10-24T10:29:18.035Z,2.38
2022-10-24T10:32:25.505Z,2.83
2022-10-24T10:35:19.864Z,2.92
2022-10-24T10:38:18.999Z,2.40
2022-10-24T10:41:26.132Z,2.90
2022-10-24T10:44:19.219Z,2.50
2022-10-24T10:47:12.933Z,2.30
2022-10-24T10:49:59.841Z,2.30
2022-10-24T10:52:50.566Z,2.60
2022-10-24T10:56:03.218Z,2.22
2022-10-24T10:58:59.182Z,2.50
2022-10-24T11:02:01.170Z,2.15
2022-10-24T11:04:58.503Z,2.30
2022-10-24T11:08:19.129Z,2.10
2022-10-24T11:11:29.049Z,2.42
2022-10-24T11:14:36.339Z,2.25
2022-10-24T11:17:52.283Z,2.67
2022-10-24T11:20:48.016Z,2.63
2022-10-24T11:24:00.328Z,2.22
2022-10-24T11:26:56.354Z,2.40
2022-10-24T11:29:57.052Z,2.50
2022-10-24T11:32:57.605Z,2.42
2022-10-24T11:36:01.536Z,2.80
2022-10-24T11:39:00.676Z,2.70
2022-10-24T11:42:12.362Z,2.05
2022-10-24T11:45:07.556Z,1.80
2022-10-24T11:48:02.417Z,2.08
2022-10-24T11:51:12.948Z,2.00
2022-10-24T11:54:03.813Z,1.92
2022-10-24T11:56:56.874Z,1.85
2022-10-24T11:59:43.904Z,2.08
2022-10-24T12:02:48.959Z,2.00
2022-10-24T12:05:50.428Z,2.08
2022-10-24T12:08:46.441Z,1.85
2022-10-24T12:11:46.197Z,1.88
2022-10-24T12:14:49.058Z,2.08
2022-10-24T12:18:05.299Z,1.98
2022-10-24T12:20:53.995Z,2.42
2022-10-24T12:23:42.539Z,1.80
2022-10-24T12:26:31.602Z,1.80
2022-10-24T12:29:25.395Z,1.95
2022-10-24T12:32:55.950Z,1.98
2022-10-24T12:35:46.929Z,2.08
2022-10-24T12:38:33.780Z,2.70
2022-10-24T12:41:38.041Z,2.40
2022-10-24T12:44:33.860Z,1.60
2022-10-24T12:47:30.078Z,2.20
2022-10-24T12:50:22.923Z,2.50
2022-10-24T12:53:31.718Z,2.42
2022-10-24T12:56:21.099Z,2.00
2022-10-24T12:59:24.536Z,1.98
2022-10-24T13:02:11.586Z,1.80
2022-10-24T13:05:10.539Z,1.90
2022-10-24T13:08:17.940Z,2.25
2022-10-24T13:11:29.842Z,2.25
2022-10-24T13:14:36.387Z,1.80
2022-10-24T13:17:36.753Z,1.60
2022-10-24T13:20:26.193Z,1.70
2022-10-24T13:23:28.265Z,1.70
2022-10-24T13:26:31.555Z,2.08
2022-10-24T13:29:24.352Z,1.80
2022-10-24T13:32:11.229Z,1.50
2022-10-24T13:34:59.722Z,2.00
2022-10-24T13:37:51.111Z,1.98
2022-10-24T13:40:42.535Z,1.90
2022-10-24T13:43:29.821Z,2.15
2022-10-24T13:46:30.670Z,1.97
2022-10-24T13:49:55.409Z,1.63
2022-10-24T13:52:46.883Z,1.75
2022-10-24T13:55:41.701Z,1.60
2022-10-24T13:58:41.024Z,1.77
2022-10-24T14:01:31.240Z,2.05
2022-10-24T14:04:18.288Z,2.10
2022-10-24T14:07:08.399Z,1.60
2022-10-24T14:10:00.366Z,1.80
2022-10-24T14:12:51.806Z,1.70
2022-10-24T14:15:45.629Z,1.60
2022-10-24T14:18:33.378Z,1.40
2022-10-24T14:21:22.052Z,1.80
2022-10-24T14:24:19.446Z,1.90
2022-10-24T14:27:06.387Z,1.38
2022-10-24T14:30:00.527Z,1.70
2022-10-24T14:32:47.847Z,1.85
2022-10-24T14:35:35.113Z,1.87
2022-10-24T14:38:23.395Z,1.55
2022-10-24T14:41:10.553Z,1.98
2022-10-24T14:43:58.711Z,2.03
2022-10-24T14:46:47.398Z,1.53
2022-10-24T14:49:37.289Z,1.87
2022-10-24T14:52:29.344Z,2.10
2022-10-24T14:55:23.252Z,1.67
2022-10-24T14:58:22.575Z,1.90
2022-10-24T15:01:18.514Z,1.57
2022-10-24T15:04:06.133Z,1.77
2022-10-24T15:06:55.795Z,1.90
2022-10-24T15:10:00.356Z,1.80
2022-10-24T15:12:56.412Z,1.67
2022-10-24T15:15:56.367Z,1.67
2022-10-24T15:18:44.212Z,2.17
2022-10-24T15:21:38.610Z,1.50
2022-10-24T15:24:26.898Z,2.07
2022-10-24T15:27:26.706Z,2.00
2022-10-24T15:30:19.965Z,2.20
2022-10-24T15:33:07.156Z,2.40
2022-10-24T15:35:54.093Z,2.20
2022-10-24T15:38:41.442Z,2.00
2022-10-24T15:41:28.678Z,2.23
2022-10-24T15:44:27.179Z,2.10
2022-10-24T15:47:14.116Z,2.50
2022-10-24T15:50:01.048Z,2.07
2022-10-24T15:52:52.421Z,2.10
2022-10-24T15:55:39.323Z,2.33
2022-10-24T15:58:26.322Z,2.70
2022-10-24T16:01:40.478Z,2.30
2022-10-24T16:04:28.544Z,1.93
2022-10-24T16:07:16.908Z,2.40
2022-10-24T16:10:03.951Z,2.07
2022-10-24T16:12:51.311Z,2.20
2022-10-24T16:15:39.060Z,2.70
2022-10-24T16:18:26.046Z,2.67
2022-10-24T16:21:18.952Z,2.97
2022-10-24T16:24:06.774Z,1.97
2022-10-24T16:26:53.875Z,2.40
2022-10-24T16:29:40.766Z,2.10
2022-10-24T16:32:27.768Z,2.00
2022-10-24T16:35:21.782Z,2.10
2022-10-24T16:38:09.332Z,2.30
2022-10-24T16:40:56.336Z,2.00
2022-10-24T16:43:46.307Z,2.50
2022-10-24T16:46:34.662Z,2.60
2022-10-24T16:49:21.688Z,2.67
2022-10-24T16:52:08.643Z,2.67
2022-10-24T16:54:55.580Z,2.30
2022-10-24T16:57:42.739Z,2.30
2022-10-24T17:00:30.526Z,1.90
2022-10-24T17:03:17.595Z,2.07
2022-10-24T17:06:05.481Z,1.90
2022-10-24T17:08:52.569Z,2.30
2022-10-24T17:11:45.529Z,2.50
2022-10-24T17:14:34.464Z,2.30
2022-10-24T17:17:21.394Z,2.30
2022-10-24T17:20:09.904Z,2.30
2022-10-24T17:22:56.976Z,2.20
2022-10-24T17:25:45.605Z,2.40
2022-10-24T17:28:33.391Z,2.13
2022-10-24T17:31:20.579Z,2.03
2022-10-24T17:34:08.919Z,2.23
2022-10-24T17:37:32.590Z,2.10
2022-10-24T17:40:22.630Z,1.80
2022-10-24T17:43:22.888Z,2.27
2022-10-24T17:46:12.693Z,1.90
2022-10-24T17:48:59.648Z,2.07
2022-10-24T17:51:47.120Z,2.13
2022-10-24T17:54:35.491Z,2.40
2022-10-24T17:57:22.589Z,1.73
2022-10-24T18:00:10.697Z,2.00
2022-10-24T18:02:57.722Z,2.20
2022-10-24T18:05:44.740Z,2.07
2022-10-24T18:08:31.806Z,2.07
2022-10-24T18:11:18.707Z,1.77
2022-10-24T18:14:06.016Z,2.03
2022-10-24T18:16:54.277Z,2.07
2022-10-24T18:19:41.236Z,1.97
2022-10-24T18:22:32.685Z,1.73
2022-10-24T18:25:22.707Z,1.63
2022-10-24T18:28:10.353Z,2.10
2022-10-24T18:30:57.264Z,2.07
2022-10-24T18:33:44.701Z,1.97
2022-10-24T18:36:31.960Z,2.17
2022-10-24T18:39:19.256Z,1.90
2022-10-24T18:42:18.328Z,2.10
2022-10-24T18:45:06.726Z,1.60
2022-10-24T18:47:54.273Z,1.97
2022-10-24T18:50:41.378Z,1.90
2022-10-24T18:53:31.354Z,2.43
2022-10-24T18:56:20.650Z,1.80
2022-10-24T18:59:14.334Z,2.00
2022-10-24T19:02:14.212Z,2.13
2022-10-24T19:05:18.885Z,2.07
2022-10-24T19:08:13.016Z,1.93
2022-10-24T19:11:00.122Z,1.93
2022-10-24T19:13:47.182Z,1.57
2022-10-24T19:16:34.997Z,1.80
2022-10-24T19:19:26.073Z,2.50
2022-10-24T19:22:13.201Z,2.00
2022-10-24T19:25:00.123Z,1.83
2022-10-24T19:27:49.234Z,1.97
2022-10-24T19:30:37.930Z,1.87
2022-10-24T19:33:27.812Z,2.40
2022-10-24T19:36:19.061Z,2.07
2022-10-24T19:39:06.854Z,2.10
2022-10-24T19:41:53.756Z,2.27
2022-10-24T19:44:43.548Z,2.40
2022-10-24T19:47:30.612Z,1.80
2022-10-24T19:50:17.520Z,2.17
2022-10-24T19:53:04.508Z,2.00
2022-10-24T19:55:51.459Z,2.40
2022-10-24T19:58:40.050Z,2.00
2022-10-24T20:01:29.431Z,1.90
2022-10-24T20:04:16.508Z,2.30
2022-10-24T20:07:03.451Z,2.10
2022-10-24T20:09:50.826Z,2.17
2022-10-24T20:12:37.757Z,2.13
2022-10-24T20:15:24.884Z,2.20
2022-10-24T20:18:11.763Z,2.37
2022-10-24T20:20:59.697Z,2.17
2022-10-24T20:23:47.851Z,2.37
2022-10-24T20:26:34.875Z,2.47
2022-10-24T20:29:21.868Z,2.60
2022-10-24T20:32:08.833Z,2.20
2022-10-24T20:34:55.748Z,2.33
2022-10-24T20:37:44.765Z,2.30
2022-10-24T20:40:31.936Z,2.33
2022-10-24T20:43:18.835Z,2.40
2022-10-24T20:46:06.493Z,2.57
2022-10-24T20:48:53.809Z,2.23
2022-10-24T20:51:42.570Z,2.27
2022-10-24T20:54:29.491Z,2.57
2022-10-24T20:57:16.488Z,2.93
2022-10-24T21:00:04.257Z,2.90
2022-10-24T21:02:51.718Z,2.50
2022-10-24T21:05:38.645Z,2.73
2022-10-24T21:08:25.596Z,2.90
2022-10-24T21:11:15.379Z,2.50
2022-10-24T21:14:07.727Z,3.27
2022-10-24T21:16:54.645Z,2.87
2022-10-24T21:19:41.697Z,2.40
2022-10-24T21:22:29.037Z,2.80
2022-10-24T21:25:15.990Z,2.50
2022-10-24T21:28:02.976Z,2.63
2022-10-24T21:30:49.978Z,2.80
2022-10-24T21:33:38.052Z,2.37
2022-10-24T21:36:25.492Z,2.77
2022-10-24T21:39:16.870Z,2.20
2022-10-24T21:42:05.355Z,2.40
2022-10-24T21:44:52.301Z,2.37
2022-10-24T21:47:39.208Z,2.60
2022-10-24T21:50:26.251Z,3.03
2022-10-24T21:53:13.170Z,2.50
2022-10-24T21:56:05.882Z,2.50
2022-10-24T22:01:53.575Z,2.90
2022-10-24T22:04:40.599Z,2.93
2022-10-24T22:10:19.377Z,2.93
2022-10-24T22:13:06.282Z,2.70
2022-10-24T22:15:53.630Z,2.97
2022-10-24T22:18:40.870Z,3.10
2022-10-24T22:21:36.868Z,3.77
2022-10-24T22:24:24.513Z,3.10
2022-10-24T22:27:11.458Z,3.13
2022-10-24T22:29:58.372Z,3.20
2022-10-24T22:32:45.632Z,3.20
2022-10-24T22:35:33.450Z,2.80
2022-10-24T22:38:20.643Z,2.90
2022-10-24T22:41:10.284Z,2.60
2022-10-24T22:43:57.480Z,3.10
2022-10-24T22:47:19.643Z,2.97
2022-10-24T22:50:38.616Z,2.70
2022-10-24T22:53:28.847Z,3.10
2022-10-24T22:56:33.072Z,3.73
2022-10-24T22:59:20.235Z,3.20
2022-10-24T23:02:26.066Z,3.50
2022-10-24T23:05:38.649Z,3.93
2022-10-24T23:08:37.573Z,3.60
2022-10-24T23:11:24.753Z,4.30
2022-10-24T23:14:12.008Z,3.23
2022-10-24T23:17:00.653Z,3.60
2022-10-24T23:19:48.208Z,3.60
2022-10-24T23:22:35.478Z,3.30
2022-10-24T23:25:22.777Z,3.50
2022-10-24T23:28:49.774Z,3.70
2022-10-24T23:31:37.009Z,3.87
2022-10-24T23:34:24.360Z,3.53
2022-10-24T23:37:26.443Z,3.90
2022-10-24T23:40:34.239Z,3.50
2022-10-24T23:43:21.863Z,3.40
2022-10-24T23:46:33.993Z,3.53
2022-10-24T23:49:33.291Z,3.60
2022-10-24T23:52:32.311Z,2.97
2022-10-24T23:55:19.627Z,2.90
2022-10-24T23:58:09.183Z,2.87
